sensor_id;sensor_type;location;lat;lon;timestamp;pressure;altitude;pressure_sealevel;temperature;humidity
70589;BME280;58152;49.202;18.744;2023-02-17T00:00:00;98164.50;;;0.90;63.26
70589;BME280;58152;49.202;18.744;2023-02-17T00:02:25;98155.88;;;0.86;63.57
70589;BME280;58152;49.202;18.744;2023-02-17T00:04:54;98150.72;;;0.83;64.49
70589;BME280;58152;49.202;18.744;2023-02-17T00:07:19;98161.91;;;0.84;64.13
70589;BME280;58152;49.202;18.744;2023-02-17T00:09:45;98171.38;;;0.83;64.28
70589;BME280;58152;49.202;18.744;2023-02-17T00:12:10;98157.59;;;0.83;64.29
70589;BME280;58152;49.202;18.744;2023-02-17T00:14:38;98150.72;;;0.83;64.39
70589;BME280;58152;49.202;18.744;2023-02-17T00:17:04;98145.50;;;0.82;64.68
70589;BME280;58152;49.202;18.744;2023-02-17T00:19:29;98159.31;;;0.84;64.64
70589;BME280;58152;49.202;18.744;2023-02-17T00:21:57;98163.66;;;0.89;65.05
70589;BME280;58152;49.202;18.744;2023-02-17T00:24:24;98149.88;;;0.90;65.05
70589;BME280;58152;49.202;18.744;2023-02-17T00:26:50;98165.41;;;0.95;65.70
70589;BME280;58152;49.202;18.744;2023-02-17T00:29:16;98161.09;;;0.92;66.01
70589;BME280;58152;49.202;18.744;2023-02-17T00:31:42;98164.50;;;0.91;67.05
70589;BME280;58152;49.202;18.744;2023-02-17T00:34:07;98173.97;;;0.91;66.48
70589;BME280;58152;49.202;18.744;2023-02-17T00:36:32;98174.84;;;0.88;67.08
70589;BME280;58152;49.202;18.744;2023-02-17T00:38:58;98156.69;;;0.82;67.44
70589;BME280;58152;49.202;18.744;2023-02-17T00:41:25;98159.31;;;0.85;67.29
70589;BME280;58152;49.202;18.744;2023-02-17T00:43:51;98167.09;;;0.88;67.06
70589;BME280;58152;49.202;18.744;2023-02-17T00:46:17;98160.22;;;0.87;67.66
70589;BME280;58152;49.202;18.744;2023-02-17T00:48:42;98152.44;;;0.89;67.60
70589;BME280;58152;49.202;18.744;2023-02-17T00:51:08;98154.19;;;0.91;67.94
70589;BME280;58152;49.202;18.744;2023-02-17T00:53:34;98147.28;;;0.90;68.84
70589;BME280;58152;49.202;18.744;2023-02-17T00:56:00;98151.59;;;0.90;68.12
70589;BME280;58152;49.202;18.744;2023-02-17T00:58:26;98146.44;;;0.88;68.66
70589;BME280;58152;49.202;18.744;2023-02-17T01:00:51;98142.97;;;0.88;68.75
70589;BME280;58152;49.202;18.744;2023-02-17T01:03:18;98154.19;;;0.94;68.73
70589;BME280;58152;49.202;18.744;2023-02-17T01:05:46;98153.34;;;0.95;68.30
70589;BME280;58152;49.202;18.744;2023-02-17T01:08:12;98146.47;;;0.97;68.23
70589;BME280;58152;49.202;18.744;2023-02-17T01:10:39;98134.38;;;0.95;69.26
70589;BME280;58152;49.202;18.744;2023-02-17T01:13:06;98144.75;;;0.98;69.33
70589;BME280;58152;49.202;18.744;2023-02-17T01:15:37;98140.44;;;0.98;69.12
70589;BME280;58152;49.202;18.744;2023-02-17T01:18:03;98130.94;;;0.94;68.68
70589;BME280;58152;49.202;18.744;2023-02-17T01:20:28;98128.34;;;0.96;69.32
70589;BME280;58152;49.202;18.744;2023-02-17T01:22:54;98131.84;;;0.96;69.29
70589;BME280;58152;49.202;18.744;2023-02-17T01:25:19;98128.38;;;0.97;69.74
70589;BME280;58152;49.202;18.744;2023-02-17T01:27:44;98120.59;;;0.94;69.52
70589;BME280;58152;49.202;18.744;2023-02-17T01:30:12;98115.41;;;0.91;69.98
70589;BME280;58152;49.202;18.744;2023-02-17T01:32:37;98116.31;;;0.93;69.84
70589;BME280;58152;49.202;18.744;2023-02-17T01:35:03;98127.50;;;0.92;70.14
70589;BME280;58152;49.202;18.744;2023-02-17T01:37:31;98118.00;;;0.91;70.56
70589;BME280;58152;49.202;18.744;2023-02-17T01:39:56;98112.84;;;0.88;70.20
70589;BME280;58152;49.202;18.744;2023-02-17T01:42:22;98115.44;;;0.94;70.29
70589;BME280;58152;49.202;18.744;2023-02-17T01:47:54;98108.53;;;0.87;70.87
70589;BME280;58152;49.202;18.744;2023-02-17T01:50:34;98117.16;;;0.92;70.45
70589;BME280;58152;49.202;18.744;2023-02-17T01:53:01;98098.19;;;0.87;70.85
70589;BME280;58152;49.202;18.744;2023-02-17T01:55:30;98089.59;;;0.88;70.67
70589;BME280;58152;49.202;18.744;2023-02-17T01:57:57;98095.63;;;0.87;70.61
70589;BME280;58152;49.202;18.744;2023-02-17T02:00:27;98088.72;;;0.88;70.14
70589;BME280;58152;49.202;18.744;2023-02-17T02:02:53;98077.53;;;0.89;70.99
70589;BME280;58152;49.202;18.744;2023-02-17T02:05:19;98075.81;;;0.89;70.72
70589;BME280;58152;49.202;18.744;2023-02-17T02:07:46;98080.97;;;0.89;70.98
70589;BME280;58152;49.202;18.744;2023-02-17T02:10:13;98081.84;;;0.88;70.36
70589;BME280;58152;49.202;18.744;2023-02-17T02:12:40;98085.28;;;0.90;71.05
70589;BME280;58152;49.202;18.744;2023-02-17T02:15:08;98100.78;;;0.87;71.20
70589;BME280;58152;49.202;18.744;2023-02-17T02:28:39;98101.59;;;0.80;72.30
70589;BME280;58152;49.202;18.744;2023-02-17T02:33:59;98111.03;;;0.76;72.21
70589;BME280;58152;49.202;18.744;2023-02-17T02:36:31;98104.16;;;0.77;72.10
70589;BME280;58152;49.202;18.744;2023-02-17T02:39:07;98101.59;;;0.80;71.94
70589;BME280;58152;49.202;18.744;2023-02-17T02:41:39;98097.28;;;0.79;71.82
70589;BME280;58152;49.202;18.744;2023-02-17T02:44:10;98102.44;;;0.82;71.50
70589;BME280;58152;49.202;18.744;2023-02-17T02:46:37;98093.88;;;0.83;71.50
70589;BME280;58152;49.202;18.744;2023-02-17T02:49:03;98086.97;;;0.84;71.92
70589;BME280;58152;49.202;18.744;2023-02-17T03:02:37;98096.47;;;0.83;71.78
70589;BME280;58152;49.202;18.744;2023-02-17T03:08:05;98082.69;;;0.84;71.22
70589;BME280;58152;49.202;18.744;2023-02-17T03:10:33;98058.53;;;0.74;71.16
70589;BME280;58152;49.202;18.744;2023-02-17T03:13:02;98070.56;;;0.77;70.82
70589;BME280;58152;49.202;18.744;2023-02-17T03:15:31;98073.16;;;0.75;71.04
70589;BME280;58152;49.202;18.744;2023-02-17T03:18:01;98074.00;;;0.77;71.26
70589;BME280;58152;49.202;18.744;2023-02-17T03:20:31;98068.84;;;0.74;71.23
70589;BME280;58152;49.202;18.744;2023-02-17T03:22:57;98074.03;;;0.74;71.26
70589;BME280;58152;49.202;18.744;2023-02-17T03:25:23;98072.31;;;0.73;71.72
70589;BME280;58152;49.202;18.744;2023-02-17T03:27:49;98074.88;;;0.76;71.22
70589;BME280;58152;49.202;18.744;2023-02-17T03:30:14;98080.03;;;0.76;71.36
70589;BME280;58152;49.202;18.744;2023-02-17T03:32:41;98080.91;;;0.77;71.05
70589;BME280;58152;49.202;18.744;2023-02-17T03:35:07;98086.06;;;0.74;71.23
70589;BME280;58152;49.202;18.744;2023-02-17T03:37:32;98094.66;;;0.73;71.06
70589;BME280;58152;49.202;18.744;2023-02-17T03:39:58;98099.00;;;0.74;71.45
70589;BME280;58152;49.202;18.744;2023-02-17T03:42:23;98099.84;;;0.74;71.42
70589;BME280;58152;49.202;18.744;2023-02-17T03:44:49;98096.38;;;0.72;71.02
70589;BME280;58152;49.202;18.744;2023-02-17T03:47:14;98086.91;;;0.73;71.76
70589;BME280;58152;49.202;18.744;2023-02-17T03:49:40;98080.03;;;0.69;71.28
70589;BME280;58152;49.202;18.744;2023-02-17T03:52:05;98079.16;;;0.70;71.61
70589;BME280;58152;49.202;18.744;2023-02-17T03:54:30;98066.22;;;0.67;71.37
70589;BME280;58152;49.202;18.744;2023-02-17T03:56:56;98065.38;;;0.65;71.58
70589;BME280;58152;49.202;18.744;2023-02-17T03:59:23;98064.50;;;0.66;71.14
70589;BME280;58152;49.202;18.744;2023-02-17T04:01:48;98071.34;;;0.64;71.25
70589;BME280;58152;49.202;18.744;2023-02-17T04:04:14;98063.63;;;0.61;71.67
70589;BME280;58152;49.202;18.744;2023-02-17T04:06:39;98061.03;;;0.62;71.55
70589;BME280;58152;49.202;18.744;2023-02-17T04:09:04;98055.88;;;0.61;72.11
70589;BME280;58152;49.202;18.744;2023-02-17T04:11:30;98062.75;;;0.63;71.03
70589;BME280;58152;49.202;18.744;2023-02-17T04:13:55;98057.59;;;0.62;71.74
70589;BME280;58152;49.202;18.744;2023-02-17T04:16:21;98056.72;;;0.63;71.57
70589;BME280;58152;49.202;18.744;2023-02-17T04:18:46;98050.72;;;0.65;71.45
70589;BME280;58152;49.202;18.744;2023-02-17T04:21:12;98051.56;;;0.63;71.10
70589;BME280;58152;49.202;18.744;2023-02-17T04:23:37;98042.13;;;0.65;71.49
70589;BME280;58152;49.202;18.744;2023-02-17T04:26:05;98055.88;;;0.68;70.96
70589;BME280;58152;49.202;18.744;2023-02-17T04:28:30;98043.84;;;0.66;71.46
70589;BME280;58152;49.202;18.744;2023-02-17T04:30:57;98037.78;;;0.64;71.32
70589;BME280;58152;49.202;18.744;2023-02-17T04:33:24;98049.84;;;0.62;71.18
70589;BME280;58152;49.202;18.744;2023-02-17T04:35:49;98041.22;;;0.63;71.31
70589;BME280;58152;49.202;18.744;2023-02-17T04:38:15;98041.22;;;0.58;71.06
70589;BME280;58152;49.202;18.744;2023-02-17T04:40:41;98044.66;;;0.59;70.88
70589;BME280;58152;49.202;18.744;2023-02-17T04:43:06;98041.22;;;0.61;71.46
70589;BME280;58152;49.202;18.744;2023-02-17T04:45:36;98030.91;;;0.60;71.72
70589;BME280;58152;49.202;18.744;2023-02-17T04:48:02;98037.75;;;0.58;71.37
70589;BME280;58152;49.202;18.744;2023-02-17T04:50:27;98036.09;;;0.66;71.44
70589;BME280;58152;49.202;18.744;2023-02-17T04:52:53;98034.34;;;0.62;71.81
70589;BME280;58152;49.202;18.744;2023-02-17T04:55:18;98021.41;;;0.57;71.47
70589;BME280;58152;49.202;18.744;2023-02-17T04:57:44;98031.75;;;0.59;71.42
70589;BME280;58152;49.202;18.744;2023-02-17T05:00:10;98019.72;;;0.61;71.72
70589;BME280;58152;49.202;18.744;2023-02-17T05:02:36;98023.13;;;0.55;72.02
70589;BME280;58152;49.202;18.744;2023-02-17T05:05:01;98031.75;;;0.62;71.97
70589;BME280;58152;49.202;18.744;2023-02-17T05:07:27;98033.50;;;0.61;71.52
70589;BME280;58152;49.202;18.744;2023-02-17T05:09:52;98030.88;;;0.57;71.86
70589;BME280;58152;49.202;18.744;2023-02-17T05:12:18;98026.56;;;0.59;71.44
70589;BME280;58152;49.202;18.744;2023-02-17T05:14:44;98024.00;;;0.57;71.50
70589;BME280;58152;49.202;18.744;2023-02-17T05:17:10;98032.59;;;0.59;71.96
70589;BME280;58152;49.202;18.744;2023-02-17T05:19:35;98029.16;;;0.59;71.82
70589;BME280;58152;49.202;18.744;2023-02-17T05:22:01;98037.78;;;0.61;71.75
70589;BME280;58152;49.202;18.744;2023-02-17T05:24:26;98034.31;;;0.54;71.97
70589;BME280;58152;49.202;18.744;2023-02-17T05:26:51;98035.19;;;0.59;71.51
70589;BME280;58152;49.202;18.744;2023-02-17T05:29:19;98035.19;;;0.59;71.91
70589;BME280;58152;49.202;18.744;2023-02-17T05:31:45;98038.63;;;0.57;71.34
70589;BME280;58152;49.202;18.744;2023-02-17T05:34:11;98046.41;;;0.60;72.07
70589;BME280;58152;49.202;18.744;2023-02-17T05:36:37;98045.50;;;0.59;72.06
70589;BME280;58152;49.202;18.744;2023-02-17T05:39:02;98045.50;;;0.59;72.31
70589;BME280;58152;49.202;18.744;2023-02-17T05:41:28;98047.25;;;0.62;71.86
70589;BME280;58152;49.202;18.744;2023-02-17T05:43:53;98047.28;;;0.68;72.05
70589;BME280;58152;49.202;18.744;2023-02-17T05:46:18;98049.88;;;0.69;71.84
70589;BME280;58152;49.202;18.744;2023-02-17T05:48:44;98031.78;;;0.65;71.68
70589;BME280;58152;49.202;18.744;2023-02-17T05:51:10;98036.94;;;0.68;71.90
70589;BME280;58152;49.202;18.744;2023-02-17T05:53:38;98030.03;;;0.64;71.79
70589;BME280;58152;49.202;18.744;2023-02-17T05:56:04;98022.31;;;0.67;72.04
70589;BME280;58152;49.202;18.744;2023-02-17T05:58:29;98030.91;;;0.67;72.24
70589;BME280;58152;49.202;18.744;2023-02-17T06:00:55;98031.81;;;0.69;72.40
70589;BME280;58152;49.202;18.744;2023-02-17T06:03:20;98020.63;;;0.69;72.13
70589;BME280;58152;49.202;18.744;2023-02-17T06:05:46;98023.19;;;0.70;72.61
70589;BME280;58152;49.202;18.744;2023-02-17T06:08:12;98024.91;;;0.70;72.44
70589;BME280;58152;49.202;18.744;2023-02-17T06:10:37;98016.28;;;0.68;72.37
70589;BME280;58152;49.202;18.744;2023-02-17T06:13:02;98022.31;;;0.73;71.87
70589;BME280;58152;49.202;18.744;2023-02-17T06:15:28;98017.19;;;0.74;71.75
70589;BME280;58152;49.202;18.744;2023-02-17T06:17:54;98012.03;;;0.74;72.00
70589;BME280;58152;49.202;18.744;2023-02-17T06:20:20;98013.75;;;0.74;72.25
70589;BME280;58152;49.202;18.744;2023-02-17T06:22:45;98018.03;;;0.76;72.07
70589;BME280;58152;49.202;18.744;2023-02-17T06:25:11;98012.00;;;0.77;71.99
70589;BME280;58152;49.202;18.744;2023-02-17T06:27:36;98011.16;;;0.77;71.92
70589;BME280;58152;49.202;18.744;2023-02-17T06:30:02;98007.72;;;0.76;72.46
70589;BME280;58152;49.202;18.744;2023-02-17T06:32:28;98010.28;;;0.76;72.01
70589;BME280;58152;49.202;18.744;2023-02-17T06:34:53;98012.00;;;0.73;72.03
70589;BME280;58152;49.202;18.744;2023-02-17T06:37:19;98025.81;;;0.78;71.76
70589;BME280;58152;49.202;18.744;2023-02-17T06:39:44;98018.06;;;0.73;71.92
70589;BME280;58152;49.202;18.744;2023-02-17T06:42:10;98009.44;;;0.77;72.29
70589;BME280;58152;49.202;18.744;2023-02-17T06:44:35;98009.44;;;0.77;72.21
70589;BME280;58152;49.202;18.744;2023-02-17T06:47:01;98010.31;;;0.80;72.26
70589;BME280;58152;49.202;18.744;2023-02-17T06:49:26;98006.88;;;0.79;71.82
70589;BME280;58152;49.202;18.744;2023-02-17T06:51:51;98004.31;;;0.84;72.04
70589;BME280;58152;49.202;18.744;2023-02-17T06:54:17;98006.03;;;0.83;71.65
70589;BME280;58152;49.202;18.744;2023-02-17T06:56:42;98005.19;;;0.83;72.22
70589;BME280;58152;49.202;18.744;2023-02-17T06:59:08;98012.94;;;0.87;71.81
70589;BME280;58152;49.202;18.744;2023-02-17T07:01:33;98010.34;;;0.87;72.33
70589;BME280;58152;49.202;18.744;2023-02-17T07:03:58;98018.97;;;0.89;72.04
70589;BME280;58152;49.202;18.744;2023-02-17T07:06:24;98013.81;;;0.94;72.00
70589;BME280;58152;49.202;18.744;2023-02-17T07:08:50;98007.78;;;0.92;72.00
70589;BME280;58152;49.202;18.744;2023-02-17T07:11:16;98005.19;;;0.93;72.02
70589;BME280;58152;49.202;18.744;2023-02-17T07:13:42;98022.44;;;0.97;72.65
70589;BME280;58152;49.202;18.744;2023-02-17T07:16:09;98020.72;;;0.98;71.87
70589;BME280;58152;49.202;18.744;2023-02-17T07:18:35;98022.44;;;0.99;71.96
70589;BME280;58152;49.202;18.744;2023-02-17T07:21:06;98012.09;;;0.97;71.54
70589;BME280;58152;49.202;18.744;2023-02-17T07:23:32;98014.69;;;1.00;72.22
70589;BME280;58152;49.202;18.744;2023-02-17T07:26:05;98012.97;;;1.04;71.85
70589;BME280;58152;49.202;18.744;2023-02-17T07:28:32;98013.84;;;1.06;72.64
70589;BME280;58152;49.202;18.744;2023-02-17T07:31:06;98017.28;;;1.10;71.91
70589;BME280;58152;49.202;18.744;2023-02-17T07:33:33;98015.59;;;1.10;72.12
70589;BME280;58152;49.202;18.744;2023-02-17T07:35:58;98011.28;;;1.14;71.99
70589;BME280;58152;49.202;18.744;2023-02-17T07:38:24;98013.88;;;1.12;71.80
70589;BME280;58152;49.202;18.744;2023-02-17T07:40:52;98019.06;;;1.15;72.40
70589;BME280;58152;49.202;18.744;2023-02-17T07:43:17;98021.63;;;1.15;71.70
70589;BME280;58152;49.202;18.744;2023-02-17T07:45:43;98025.94;;;1.18;72.08
70589;BME280;58152;49.202;18.744;2023-02-17T07:48:08;98013.88;;;1.20;72.02
70589;BME280;58152;49.202;18.744;2023-02-17T07:50:33;98023.34;;;1.22;72.47
70589;BME280;58152;49.202;18.744;2023-02-17T07:52:59;98021.63;;;1.27;71.91
70589;BME280;58152;49.202;18.744;2023-02-17T07:55:24;98020.81;;;1.30;72.24
70589;BME280;58152;49.202;18.744;2023-02-17T07:57:50;98017.34;;;1.31;71.98
70589;BME280;58152;49.202;18.744;2023-02-17T08:00:16;98013.91;;;1.35;71.78
70589;BME280;58152;49.202;18.744;2023-02-17T08:02:41;98021.66;;;1.41;71.97
70589;BME280;58152;49.202;18.744;2023-02-17T08:05:07;98012.19;;;1.45;71.84
70589;BME280;58152;49.202;18.744;2023-02-17T08:07:32;98008.75;;;1.47;71.53
70589;BME280;58152;49.202;18.744;2023-02-17T08:09:58;98006.19;;;1.53;71.86
70589;BME280;58152;49.202;18.744;2023-02-17T08:12:42;97999.28;;;1.54;71.71
70589;BME280;58152;49.202;18.744;2023-02-17T08:15:33;97994.09;;;1.59;71.73
70589;BME280;58152;49.202;18.744;2023-02-17T08:17:59;97983.78;;;1.66;71.73
70589;BME280;58152;49.202;18.744;2023-02-17T08:20:25;97983.75;;;1.72;71.79
70589;BME280;58152;49.202;18.744;2023-02-17T08:22:50;97985.50;;;1.75;71.77
70589;BME280;58152;49.202;18.744;2023-02-17T08:25:16;97987.22;;;1.76;71.58
70589;BME280;58152;49.202;18.744;2023-02-17T08:27:41;97977.72;;;1.80;71.81
70589;BME280;58152;49.202;18.744;2023-02-17T08:30:07;97985.47;;;1.83;71.34
70589;BME280;58152;49.202;18.744;2023-02-17T08:32:33;97981.16;;;1.86;71.18
70589;BME280;58152;49.202;18.744;2023-02-17T08:34:58;97984.63;;;1.88;71.00
70589;BME280;58152;49.202;18.744;2023-02-17T08:37:24;97989.78;;;1.90;71.31
70589;BME280;58152;49.202;18.744;2023-02-17T08:39:50;97990.66;;;1.86;70.99
70589;BME280;58152;49.202;18.744;2023-02-17T08:42:15;97994.97;;;1.88;71.27
70589;BME280;58152;49.202;18.744;2023-02-17T08:44:42;97982.88;;;1.87;70.91
70589;BME280;58152;49.202;18.744;2023-02-17T08:47:07;97982.88;;;1.87;71.14
70589;BME280;58152;49.202;18.744;2023-02-17T08:49:34;97975.97;;;1.92;71.13
70589;BME280;58152;49.202;18.744;2023-02-17T08:52:00;97969.06;;;1.91;71.05
70589;BME280;58152;49.202;18.744;2023-02-17T08:54:26;97970.81;;;1.95;71.42
70589;BME280;58152;49.202;18.744;2023-02-17T08:56:51;97956.16;;;1.97;70.86
70589;BME280;58152;49.202;18.744;2023-02-17T08:59:17;97956.97;;;2.06;71.03
70589;BME280;58152;49.202;18.744;2023-02-17T09:01:42;97949.22;;;2.09;71.15
70589;BME280;58152;49.202;18.744;2023-02-17T09:04:10;97950.94;;;2.16;71.52
70589;BME280;58152;49.202;18.744;2023-02-17T09:06:39;97950.91;;;2.17;71.26
70589;BME280;58152;49.202;18.744;2023-02-17T09:09:06;97949.19;;;2.18;71.39
70589;BME280;58152;49.202;18.744;2023-02-17T09:11:32;97945.75;;;2.13;71.31
70589;BME280;58152;49.202;18.744;2023-02-17T09:13:58;97945.75;;;2.13;71.15
70589;BME280;58152;49.202;18.744;2023-02-17T09:16:23;97960.41;;;2.15;71.42
70589;BME280;58152;49.202;18.744;2023-02-17T09:18:50;97952.66;;;2.14;71.00
70589;BME280;58152;49.202;18.744;2023-02-17T09:21:17;97960.44;;;2.12;71.56
70589;BME280;58152;49.202;18.744;2023-02-17T09:23:44;97951.78;;;2.13;71.33
70589;BME280;58152;49.202;18.744;2023-02-17T09:26:12;97956.94;;;2.15;71.13
70589;BME280;58152;49.202;18.744;2023-02-17T09:28:38;97957.84;;;2.12;71.31
70589;BME280;58152;49.202;18.744;2023-02-17T09:31:09;97965.56;;;2.15;71.24
70589;BME280;58152;49.202;18.744;2023-02-17T09:33:38;97968.19;;;2.17;71.31
70589;BME280;58152;49.202;18.744;2023-02-17T09:36:09;97972.47;;;2.19;71.56
70589;BME280;58152;49.202;18.744;2023-02-17T09:38:36;97965.56;;;2.20;71.56
70589;BME280;58152;49.202;18.744;2023-02-17T09:41:27;97968.16;;;2.23;71.97
70589;BME280;58152;49.202;18.744;2023-02-17T09:43:56;97969.88;;;2.25;71.53
70589;BME280;58152;49.202;18.744;2023-02-17T09:48:51;97975.91;;;2.27;71.66
70589;BME280;58152;49.202;18.744;2023-02-17T09:51:33;97961.25;;;2.29;71.92
70589;BME280;58152;49.202;18.744;2023-02-17T09:56:38;97958.59;;;2.42;72.35
70589;BME280;58152;49.202;18.744;2023-02-17T10:01:39;97966.38;;;2.48;71.82
70589;BME280;58152;49.202;18.744;2023-02-17T10:06:40;97958.56;;;2.51;71.88
70589;BME280;58152;49.202;18.744;2023-02-17T10:12:07;97940.44;;;2.52;71.98
70589;BME280;58152;49.202;18.744;2023-02-17T10:14:54;97947.34;;;2.50;72.29
70589;BME280;58152;49.202;18.744;2023-02-17T10:23:24;97921.47;;;2.49;72.04
70589;BME280;58152;49.202;18.744;2023-02-17T10:34:37;97899.84;;;2.51;72.21
70589;BME280;58152;49.202;18.744;2023-02-17T10:37:31;97894.66;;;2.51;72.33
70589;BME280;58152;49.202;18.744;2023-02-17T10:40:01;97880.00;;;2.47;71.85
70589;BME280;58152;49.202;18.744;2023-02-17T10:42:31;97873.09;;;2.49;72.14
70589;BME280;58152;49.202;18.744;2023-02-17T10:47:39;97872.22;;;2.50;72.10
70589;BME280;58152;49.202;18.744;2023-02-17T10:50:14;97868.75;;;2.54;72.46
70589;BME280;58152;49.202;18.744;2023-02-17T10:52:41;97867.00;;;2.57;72.41
70589;BME280;58152;49.202;18.744;2023-02-17T10:55:31;97866.13;;;2.61;72.82
70589;BME280;58152;49.202;18.744;2023-02-17T10:58:04;97859.22;;;2.57;72.97
70589;BME280;58152;49.202;18.744;2023-02-17T11:00:31;97863.56;;;2.58;72.80
70589;BME280;58152;49.202;18.744;2023-02-17T11:02:57;97854.06;;;2.61;72.72
70589;BME280;58152;49.202;18.744;2023-02-17T11:05:32;97859.25;;;2.61;72.75
70589;BME280;58152;49.202;18.744;2023-02-17T11:08:03;97857.47;;;2.65;73.07
70589;BME280;58152;49.202;18.744;2023-02-17T11:10:39;97860.94;;;2.64;73.25
70589;BME280;58152;49.202;18.744;2023-02-17T11:15:57;97860.09;;;2.62;73.08
70589;BME280;58152;49.202;18.744;2023-02-17T11:18:27;97854.03;;;2.63;73.44
70589;BME280;58152;49.202;18.744;2023-02-17T11:21:08;97847.16;;;2.62;73.67
70589;BME280;58152;49.202;18.744;2023-02-17T11:23:34;97856.63;;;2.64;73.63
70589;BME280;58152;49.202;18.744;2023-02-17T11:26:25;97848.84;;;2.64;73.49
70589;BME280;58152;49.202;18.744;2023-02-17T11:28:51;97831.59;;;2.60;73.74
70589;BME280;58152;49.202;18.744;2023-02-17T11:31:28;97845.41;;;2.64;73.55
70589;BME280;58152;49.202;18.744;2023-02-17T11:33:55;97834.16;;;2.66;74.03
70589;BME280;58152;49.202;18.744;2023-02-17T11:36:30;97843.66;;;2.67;73.87
70589;BME280;58152;49.202;18.744;2023-02-17T11:38:56;97845.34;;;2.73;74.03
70589;BME280;58152;49.202;18.744;2023-02-17T11:41:22;97849.66;;;2.72;74.04
70589;BME280;58152;49.202;18.744;2023-02-17T11:43:53;97842.75;;;2.73;74.17
70589;BME280;58152;49.202;18.744;2023-02-17T11:46:37;97837.59;;;2.71;74.26
70589;BME280;58152;49.202;18.744;2023-02-17T11:57:41;97822.91;;;2.72;74.67
70589;BME280;58152;49.202;18.744;2023-02-17T12:11:02;97817.66;;;2.81;74.38
70589;BME280;58152;49.202;18.744;2023-02-17T12:13:47;97802.97;;;2.80;74.56
70589;BME280;58152;49.202;18.744;2023-02-17T12:24:06;97801.16;;;2.90;74.60
70589;BME280;58152;49.202;18.744;2023-02-17T12:26:49;97790.81;;;2.87;74.94
70589;BME280;58152;49.202;18.744;2023-02-17T12:29:51;97797.69;;;2.91;75.56
70589;BME280;58152;49.202;18.744;2023-02-17T12:34:57;97801.16;;;2.91;75.41
70589;BME280;58152;49.202;18.744;2023-02-17T12:37:29;97813.22;;;2.92;75.56
70589;BME280;58152;49.202;18.744;2023-02-17T12:39:59;97811.47;;;2.96;75.46
70589;BME280;58152;49.202;18.744;2023-02-17T12:42:40;97795.94;;;2.96;75.59
70589;BME280;58152;49.202;18.744;2023-02-17T12:45:24;97792.44;;;2.97;75.57
70589;BME280;58152;49.202;18.744;2023-02-17T12:48:13;97787.28;;;2.98;75.31
70589;BME280;58152;49.202;18.744;2023-02-17T12:51:13;97774.31;;;2.98;75.49
70589;BME280;58152;49.202;18.744;2023-02-17T12:53:45;97785.53;;;2.99;75.86
70589;BME280;58152;49.202;18.744;2023-02-17T12:59:17;97784.69;;;2.97;75.62
70589;BME280;58152;49.202;18.744;2023-02-17T13:01:57;97796.78;;;2.96;75.76
70589;BME280;58152;49.202;18.744;2023-02-17T13:04:25;97789.88;;;2.95;75.83
70589;BME280;58152;49.202;18.744;2023-02-17T13:07:16;97784.69;;;2.95;76.19
70589;BME280;58152;49.202;18.744;2023-02-17T13:09:46;97777.78;;;2.96;76.03
70589;BME280;58152;49.202;18.744;2023-02-17T13:17:28;97769.13;;;2.98;75.96
70589;BME280;58152;49.202;18.744;2023-02-17T13:22:38;97757.91;;;2.98;76.59
70589;BME280;58152;49.202;18.744;2023-02-17T13:25:04;97756.13;;;3.01;76.31
70589;BME280;58152;49.202;18.744;2023-02-17T13:27:37;97744.06;;;2.99;75.96
70589;BME280;58152;49.202;18.744;2023-02-17T13:32:36;97751.78;;;3.05;76.28
70589;BME280;58152;49.202;18.744;2023-02-17T13:35:28;97737.97;;;3.04;76.21
70589;BME280;58152;49.202;18.744;2023-02-17T13:37:54;97725.03;;;3.03;76.06
70589;BME280;58152;49.202;18.744;2023-02-17T13:42:51;97714.59;;;3.06;76.10
70589;BME280;58152;49.202;18.744;2023-02-17T13:45:39;97713.69;;;3.13;76.17
70589;BME280;58152;49.202;18.744;2023-02-17T13:48:33;97705.06;;;3.13;76.16
70589;BME280;58152;49.202;18.744;2023-02-17T13:51:06;97706.75;;;3.14;76.62
70589;BME280;58152;49.202;18.744;2023-02-17T13:53:35;97712.78;;;3.14;76.34
70589;BME280;58152;49.202;18.744;2023-02-17T13:56:03;97710.22;;;3.13;76.77
70589;BME280;58152;49.202;18.744;2023-02-17T13:58:34;97719.75;;;3.12;76.48
70589;BME280;58152;49.202;18.744;2023-02-17T14:01:02;97705.94;;;3.10;76.68
70589;BME280;58152;49.202;18.744;2023-02-17T14:03:33;97694.72;;;3.08;76.43
70589;BME280;58152;49.202;18.744;2023-02-17T14:06:01;97691.25;;;3.09;77.18
70589;BME280;58152;49.202;18.744;2023-02-17T14:08:37;97694.66;;;3.14;77.06
70589;BME280;58152;49.202;18.744;2023-02-17T14:11:14;97676.53;;;3.13;76.88
70589;BME280;58152;49.202;18.744;2023-02-17T14:13:43;97676.47;;;3.17;77.35
70589;BME280;58152;49.202;18.744;2023-02-17T14:16:29;97672.16;;;3.18;76.95
70589;BME280;58152;49.202;18.744;2023-02-17T14:21:26;97665.25;;;3.17;76.74
70589;BME280;58152;49.202;18.744;2023-02-17T14:23:53;97673.88;;;3.17;76.58
70589;BME280;58152;49.202;18.744;2023-02-17T14:26:42;97670.38;;;3.20;76.68
70589;BME280;58152;49.202;18.744;2023-02-17T14:29:10;97677.31;;;3.21;76.62
70589;BME280;58152;49.202;18.744;2023-02-17T14:31:38;97671.22;;;3.20;76.66
70589;BME280;58152;49.202;18.744;2023-02-17T14:34:04;97666.94;;;3.21;76.57
70589;BME280;58152;49.202;18.744;2023-02-17T14:36:37;97669.53;;;3.21;76.82
70589;BME280;58152;49.202;18.744;2023-02-17T14:39:06;97664.34;;;3.21;77.23
70589;BME280;58152;49.202;18.744;2023-02-17T14:41:33;97668.56;;;3.28;77.76
70589;BME280;58152;49.202;18.744;2023-02-17T14:43:58;97670.16;;;3.38;77.15
70589;BME280;58152;49.202;18.744;2023-02-17T14:46:25;97664.16;;;3.36;77.19
70589;BME280;58152;49.202;18.744;2023-02-17T14:48:50;97664.97;;;3.38;77.17
70589;BME280;58152;49.202;18.744;2023-02-17T14:51:20;97665.03;;;3.35;76.98
70589;BME280;58152;49.202;18.744;2023-02-17T14:53:46;97665.91;;;3.36;76.90
70589;BME280;58152;49.202;18.744;2023-02-17T14:58:50;97653.88;;;3.30;77.42
70589;BME280;58152;49.202;18.744;2023-02-17T15:01:18;97644.38;;;3.27;76.94